sensor_id;sensor_type;location;lat;lon;timestamp;temperature;humidity
21849;DHT22;11089;49.852;19.700;2023-06-26T00:02:39;16.90;99.90
21849;DHT22;11089;49.852;19.700;2023-06-26T00:05:41;16.90;99.90
21849;DHT22;11089;49.852;19.700;2023-06-26T00:08:43;16.70;1.00
21849;DHT22;11089;49.852;19.700;2023-06-26T00:11:44;16.70;1.00
21849;DHT22;11089;49.852;19.700;2023-06-26T00:14:45;16.50;24.90
21849;DHT22;11089;49.852;19.700;2023-06-26T00:17:46;16.50;1.00
21849;DHT22;11089;49.852;19.700;2023-06-26T00:20:47;16.40;99.90
21849;DHT22;11089;49.852;19.700;2023-06-26T00:23:47;16.30;99.90
21849;DHT22;11089;49.852;19.700;2023-06-26T00:26:49;16.10;1.00
21849;DHT22;11089;49.852;19.700;2023-06-26T00:29:50;16.20;99.90
21849;DHT22;11089;49.852;19.700;2023-06-26T00:32:53;16.20;1.00
21849;DHT22;11089;49.852;19.700;2023-06-26T00:35:54;16.20;1.00
21849;DHT22;11089;49.852;19.700;2023-06-26T00:38:55;16.00;1.00
21849;DHT22;11089;49.852;19.700;2023-06-26T00:41:56;16.00;1.00
21849;DHT22;11089;49.852;19.700;2023-06-26T00:44:57;16.00;1.00
21849;DHT22;11089;49.852;19.700;2023-06-26T00:47:58;15.80;1.00
21849;DHT22;11089;49.852;19.700;2023-06-26T00:50:59;15.80;99.90
21849;DHT22;11089;49.852;19.700;2023-06-26T00:54:00;15.80;99.90
21849;DHT22;11089;49.852;19.700;2023-06-26T00:57:01;15.70;99.90
21849;DHT22;11089;49.852;19.700;2023-06-26T01:00:03;15.70;1.00
21849;DHT22;11089;49.852;19.700;2023-06-26T01:03:04;15.70;23.20
21849;DHT22;11089;49.852;19.700;2023-06-26T01:06:05;15.60;1.00
21849;DHT22;11089;49.852;19.700;2023-06-26T01:09:07;15.50;1.00
21849;DHT22;11089;49.852;19.700;2023-06-26T01:12:08;15.60;99.90
21849;DHT22;11089;49.852;19.700;2023-06-26T01:15:09;15.50;99.90
21849;DHT22;11089;49.852;19.700;2023-06-26T01:18:10;15.40;99.90
21849;DHT22;11089;49.852;19.700;2023-06-26T01:21:12;15.40;1.00
21849;DHT22;11089;49.852;19.700;2023-06-26T01:24:17;15.40;17.10
21849;DHT22;11089;49.852;19.700;2023-06-26T01:27:22;15.20;99.90
21849;DHT22;11089;49.852;19.700;2023-06-26T01:30:24;15.10;1.00
21849;DHT22;11089;49.852;19.700;2023-06-26T01:33:27;15.10;1.00
21849;DHT22;11089;49.852;19.700;2023-06-26T01:36:28;15.10;1.00
21849;DHT22;11089;49.852;19.700;2023-06-26T01:39:29;15.10;1.00
21849;DHT22;11089;49.852;19.700;2023-06-26T01:42:34;15.20;1.00
21849;DHT22;11089;49.852;19.700;2023-06-26T01:45:35;15.10;1.00
21849;DHT22;11089;49.852;19.700;2023-06-26T01:55:28;14.90;99.90
21849;DHT22;11089;49.852;19.700;2023-06-26T01:58:30;14.90;1.00
21849;DHT22;11089;49.852;19.700;2023-06-26T02:01:32;14.90;99.90
21849;DHT22;11089;49.852;19.700;2023-06-26T02:04:34;14.90;99.90
21849;DHT22;11089;49.852;19.700;2023-06-26T02:07:35;14.90;99.90
21849;DHT22;11089;49.852;19.700;2023-06-26T02:10:36;14.90;1.00
21849;DHT22;11089;49.852;19.700;2023-06-26T02:13:37;14.80;1.00
21849;DHT22;11089;49.852;19.700;2023-06-26T02:16:38;14.70;1.00
21849;DHT22;11089;49.852;19.700;2023-06-26T02:19:39;14.80;1.00
21849;DHT22;11089;49.852;19.700;2023-06-26T02:22:45;14.80;1.00
21849;DHT22;11089;49.852;19.700;2023-06-26T02:25:46;14.80;99.90
21849;DHT22;11089;49.852;19.700;2023-06-26T02:28:47;14.70;99.90
21849;DHT22;11089;49.852;19.700;2023-06-26T02:31:48;14.60;1.00
21849;DHT22;11089;49.852;19.700;2023-06-26T02:34:49;14.50;99.90
21849;DHT22;11089;49.852;19.700;2023-06-26T02:37:52;14.60;1.00
21849;DHT22;11089;49.852;19.700;2023-06-26T02:40:53;14.60;1.00
21849;DHT22;11089;49.852;19.700;2023-06-26T02:43:54;14.50;1.00
21849;DHT22;11089;49.852;19.700;2023-06-26T02:46:55;14.50;27.70
21849;DHT22;11089;49.852;19.700;2023-06-26T02:49:56;14.50;99.90
21849;DHT22;11089;49.852;19.700;2023-06-26T02:52:56;14.60;99.90
21849;DHT22;11089;49.852;19.700;2023-06-26T02:55:57;14.60;99.90
21849;DHT22;11089;49.852;19.700;2023-06-26T02:58:58;14.70;1.00
21849;DHT22;11089;49.852;19.700;2023-06-26T03:01:59;14.70;1.00
21849;DHT22;11089;49.852;19.700;2023-06-26T03:05:00;14.70;1.00
21849;DHT22;11089;49.852;19.700;2023-06-26T03:08:02;14.60;1.00
21849;DHT22;11089;49.852;19.700;2023-06-26T03:11:03;14.50;99.90
21849;DHT22;11089;49.852;19.700;2023-06-26T03:14:04;14.50;99.90
21849;DHT22;11089;49.852;19.700;2023-06-26T03:17:05;14.50;1.00
21849;DHT22;11089;49.852;19.700;2023-06-26T03:20:08;14.50;1.00
21849;DHT22;11089;49.852;19.700;2023-06-26T03:23:09;14.40;1.00
21849;DHT22;11089;49.852;19.700;2023-06-26T03:26:10;14.50;99.90
21849;DHT22;11089;49.852;19.700;2023-06-26T03:29:11;14.50;99.90
21849;DHT22;11089;49.852;19.700;2023-06-26T03:32:12;14.40;99.90
21849;DHT22;11089;49.852;19.700;2023-06-26T03:35:13;14.50;1.00
21849;DHT22;11089;49.852;19.700;2023-06-26T03:38:15;14.40;1.00
21849;DHT22;11089;49.852;19.700;2023-06-26T03:41:16;14.40;1.00
21849;DHT22;11089;49.852;19.700;2023-06-26T03:44:17;14.40;99.90
21849;DHT22;11089;49.852;19.700;2023-06-26T03:47:18;14.40;99.90
21849;DHT22;11089;49.852;19.700;2023-06-26T03:50:19;14.50;65.60
21849;DHT22;11089;49.852;19.700;2023-06-26T03:53:20;14.50;99.90
21849;DHT22;11089;49.852;19.700;2023-06-26T03:56:21;14.50;99.90
21849;DHT22;11089;49.852;19.700;2023-06-26T03:59:22;14.50;1.00
21849;DHT22;11089;49.852;19.700;2023-06-26T04:02:23;14.50;99.90
21849;DHT22;11089;49.852;19.700;2023-06-26T04:05:24;14.70;1.00
21849;DHT22;11089;49.852;19.700;2023-06-26T04:08:25;14.80;99.90
21849;DHT22;11089;49.852;19.700;2023-06-26T04:11:29;14.70;51.50
21849;DHT22;11089;49.852;19.700;2023-06-26T04:14:30;14.70;1.00
21849;DHT22;11089;49.852;19.700;2023-06-26T04:17:31;14.70;99.90
21849;DHT22;11089;49.852;19.700;2023-06-26T04:20:32;14.70;99.90
21849;DHT22;11089;49.852;19.700;2023-06-26T04:23:35;14.80;1.00
21849;DHT22;11089;49.852;19.700;2023-06-26T04:26:37;14.90;1.00
21849;DHT22;11089;49.852;19.700;2023-06-26T04:29:38;15.00;99.90
21849;DHT22;11089;49.852;19.700;2023-06-26T04:32:39;15.00;1.00
21849;DHT22;11089;49.852;19.700;2023-06-26T04:35:40;15.10;1.00
21849;DHT22;11089;49.852;19.700;2023-06-26T04:38:41;15.20;1.00
21849;DHT22;11089;49.852;19.700;2023-06-26T04:41:43;15.30;99.90
21849;DHT22;11089;49.852;19.700;2023-06-26T04:44:44;15.40;1.00
21849;DHT22;11089;49.852;19.700;2023-06-26T04:47:45;15.50;1.00
21849;DHT22;11089;49.852;19.700;2023-06-26T04:50:46;15.60;99.90
21849;DHT22;11089;49.852;19.700;2023-06-26T04:53:54;15.70;1.00
21849;DHT22;11089;49.852;19.700;2023-06-26T04:56:55;15.80;99.90
21849;DHT22;11089;49.852;19.700;2023-06-26T04:59:57;15.90;99.90
21849;DHT22;11089;49.852;19.700;2023-06-26T05:02:58;15.90;1.00
21849;DHT22;11089;49.852;19.700;2023-06-26T05:06:01;16.00;99.90
21849;DHT22;11089;49.852;19.700;2023-06-26T05:09:02;16.10;1.00
21849;DHT22;11089;49.852;19.700;2023-06-26T05:12:04;16.20;99.90
21849;DHT22;11089;49.852;19.700;2023-06-26T05:15:05;16.20;1.00
21849;DHT22;11089;49.852;19.700;2023-06-26T05:18:06;16.30;1.00
21849;DHT22;11089;49.852;19.700;2023-06-26T05:21:07;16.40;1.00
21849;DHT22;11089;49.852;19.700;2023-06-26T05:24:09;16.40;99.90
21849;DHT22;11089;49.852;19.700;2023-06-26T05:27:12;16.50;1.00
21849;DHT22;11089;49.852;19.700;2023-06-26T05:30:20;16.60;99.90
21849;DHT22;11089;49.852;19.700;2023-06-26T05:33:23;16.70;1.00
21849;DHT22;11089;49.852;19.700;2023-06-26T05:36:25;16.70;99.90
21849;DHT22;11089;49.852;19.700;2023-06-26T05:39:27;16.80;99.90
21849;DHT22;11089;49.852;19.700;2023-06-26T05:42:28;16.90;99.90
21849;DHT22;11089;49.852;19.700;2023-06-26T05:45:29;17.10;1.00
21849;DHT22;11089;49.852;19.700;2023-06-26T05:48:30;17.10;14.60
21849;DHT22;11089;49.852;19.700;2023-06-26T05:51:31;17.20;99.90
21849;DHT22;11089;49.852;19.700;2023-06-26T05:54:32;17.30;99.90
21849;DHT22;11089;49.852;19.700;2023-06-26T05:57:34;17.40;99.90
21849;DHT22;11089;49.852;19.700;2023-06-26T06:00:36;17.40;99.90
21849;DHT22;11089;49.852;19.700;2023-06-26T06:03:39;17.50;99.90
21849;DHT22;11089;49.852;19.700;2023-06-26T06:06:40;17.60;1.00
21849;DHT22;11089;49.852;19.700;2023-06-26T06:09:41;17.70;15.00
21849;DHT22;11089;49.852;19.700;2023-06-26T06:12:42;17.80;1.00
21849;DHT22;11089;49.852;19.700;2023-06-26T06:15:43;17.90;1.00
21849;DHT22;11089;49.852;19.700;2023-06-26T06:18:44;18.00;1.00
21849;DHT22;11089;49.852;19.700;2023-06-26T06:21:45;18.00;99.90
21849;DHT22;11089;49.852;19.700;2023-06-26T06:24:46;18.10;99.90
21849;DHT22;11089;49.852;19.700;2023-06-26T06:27:47;18.20;1.00
21849;DHT22;11089;49.852;19.700;2023-06-26T06:30:48;18.40;1.00
21849;DHT22;11089;49.852;19.700;2023-06-26T06:33:49;18.50;54.00
21849;DHT22;11089;49.852;19.700;2023-06-26T06:36:50;18.60;1.00
21849;DHT22;11089;49.852;19.700;2023-06-26T06:39:51;18.70;1.00
21849;DHT22;11089;49.852;19.700;2023-06-26T06:42:52;18.80;1.00
21849;DHT22;11089;49.852;19.700;2023-06-26T06:45:53;18.90;1.00
21849;DHT22;11089;49.852;19.700;2023-06-26T06:48:54;19.00;1.00
21849;DHT22;11089;49.852;19.700;2023-06-26T06:51:55;19.10;1.00
21849;DHT22;11089;49.852;19.700;2023-06-26T06:54:57;19.30;99.90
21849;DHT22;11089;49.852;19.700;2023-06-26T06:57:59;19.40;41.00
21849;DHT22;11089;49.852;19.700;2023-06-26T07:01:00;19.60;1.00
21849;DHT22;11089;49.852;19.700;2023-06-26T07:04:03;19.70;1.00
21849;DHT22;11089;49.852;19.700;2023-06-26T07:07:04;19.80;1.00
21849;DHT22;11089;49.852;19.700;2023-06-26T07:10:07;19.90;1.00
21849;DHT22;11089;49.852;19.700;2023-06-26T07:13:09;20.00;99.90
21849;DHT22;11089;49.852;19.700;2023-06-26T07:16:10;20.10;1.00
21849;DHT22;11089;49.852;19.700;2023-06-26T07:19:12;20.00;1.00
21849;DHT22;11089;49.852;19.700;2023-06-26T07:22:13;20.10;1.00
21849;DHT22;11089;49.852;19.700;2023-06-26T07:25:14;20.20;94.20
21849;DHT22;11089;49.852;19.700;2023-06-26T07:28:15;20.50;1.00
21849;DHT22;11089;49.852;19.700;2023-06-26T07:31:16;20.70;1.00
21849;DHT22;11089;49.852;19.700;2023-06-26T07:34:17;20.70;99.90
21849;DHT22;11089;49.852;19.700;2023-06-26T07:37:18;20.80;99.90
21849;DHT22;11089;49.852;19.700;2023-06-26T07:40:19;20.80;99.90
21849;DHT22;11089;49.852;19.700;2023-06-26T07:43:20;20.90;99.90
21849;DHT22;11089;49.852;19.700;2023-06-26T07:46:21;21.20;99.90
21849;DHT22;11089;49.852;19.700;2023-06-26T07:49:22;21.40;67.80
21849;DHT22;11089;49.852;19.700;2023-06-26T07:52:23;21.50;33.30
21849;DHT22;11089;49.852;19.700;2023-06-26T07:55:24;21.70;1.00
21849;DHT22;11089;49.852;19.700;2023-06-26T07:58:26;21.90;1.00
21849;DHT22;11089;49.852;19.700;2023-06-26T08:01:27;21.90;27.50
21849;DHT22;11089;49.852;19.700;2023-06-26T08:04:29;21.90;1.00
21849;DHT22;11089;49.852;19.700;2023-06-26T08:07:34;22.10;1.00
21849;DHT22;11089;49.852;19.700;2023-06-26T08:10:35;22.20;55.60
21849;DHT22;11089;49.852;19.700;2023-06-26T08:13:36;22.40;1.00
21849;DHT22;11089;49.852;19.700;2023-06-26T08:16:37;22.50;1.00
21849;DHT22;11089;49.852;19.700;2023-06-26T08:19:38;22.60;1.00
21849;DHT22;11089;49.852;19.700;2023-06-26T08:22:40;22.90;1.00
21849;DHT22;11089;49.852;19.700;2023-06-26T08:25:41;23.20;1.00
21849;DHT22;11089;49.852;19.700;2023-06-26T08:28:42;23.20;1.00
21849;DHT22;11089;49.852;19.700;2023-06-26T08:31:43;23.40;1.00
21849;DHT22;11089;49.852;19.700;2023-06-26T08:34:44;23.50;1.00
21849;DHT22;11089;49.852;19.700;2023-06-26T08:37:45;23.50;1.00
21849;DHT22;11089;49.852;19.700;2023-06-26T08:40:46;23.80;1.00
21849;DHT22;11089;49.852;19.700;2023-06-26T08:43:47;23.90;1.00
21849;DHT22;11089;49.852;19.700;2023-06-26T08:46:50;24.00;1.00
21849;DHT22;11089;49.852;19.700;2023-06-26T08:50:04;24.10;1.00
21849;DHT22;11089;49.852;19.700;2023-06-26T08:56:18;24.00;1.00
21849;DHT22;11089;49.852;19.700;2023-06-26T08:59:22;24.10;1.00
21849;DHT22;11089;49.852;19.700;2023-06-26T09:02:23;24.30;1.00
21849;DHT22;11089;49.852;19.700;2023-06-26T09:05:26;24.30;1.00
21849;DHT22;11089;49.852;19.700;2023-06-26T09:08:28;24.30;1.00
21849;DHT22;11089;49.852;19.700;2023-06-26T09:11:28;24.30;1.00
21849;DHT22;11089;49.852;19.700;2023-06-26T09:14:30;24.20;1.00
21849;DHT22;11089;49.852;19.700;2023-06-26T09:17:39;24.20;1.00
21849;DHT22;11089;49.852;19.700;2023-06-26T09:20:41;24.10;1.00
21849;DHT22;11089;49.852;19.700;2023-06-26T09:23:42;24.20;1.00
21849;DHT22;11089;49.852;19.700;2023-06-26T09:26:43;24.30;1.00
21849;DHT22;11089;49.852;19.700;2023-06-26T09:29:48;24.60;1.00
21849;DHT22;11089;49.852;19.700;2023-06-26T09:32:49;24.80;1.00
21849;DHT22;11089;49.852;19.700;2023-06-26T09:35:51;24.80;1.00
21849;DHT22;11089;49.852;19.700;2023-06-26T09:38:52;24.80;1.00
21849;DHT22;11089;49.852;19.700;2023-06-26T09:41:53;24.80;1.00
21849;DHT22;11089;49.852;19.700;2023-06-26T09:44:57;24.90;1.00
21849;DHT22;11089;49.852;19.700;2023-06-26T09:48:02;24.90;1.00
21849;DHT22;11089;49.852;19.700;2023-06-26T09:51:03;25.10;1.00
21849;DHT22;11089;49.852;19.700;2023-06-26T09:54:05;25.60;1.00
21849;DHT22;11089;49.852;19.700;2023-06-26T09:57:10;25.90;1.00
21849;DHT22;11089;49.852;19.700;2023-06-26T10:00:12;26.20;1.00
21849;DHT22;11089;49.852;19.700;2023-06-26T10:03:13;26.50;1.00
21849;DHT22;11089;49.852;19.700;2023-06-26T10:06:15;26.70;1.00
21849;DHT22;11089;49.852;19.700;2023-06-26T10:09:19;26.70;1.00
21849;DHT22;11089;49.852;19.700;2023-06-26T10:12:41;26.70;1.00
21849;DHT22;11089;49.852;19.700;2023-06-26T10:15:45;27.00;1.00
21849;DHT22;11089;49.852;19.700;2023-06-26T10:18:47;27.10;1.00
21849;DHT22;11089;49.852;19.700;2023-06-26T10:21:49;27.40;1.00
21849;DHT22;11089;49.852;19.700;2023-06-26T10:24:52;27.50;1.00
21849;DHT22;11089;49.852;19.700;2023-06-26T10:27:58;27.40;1.00
21849;DHT22;11089;49.852;19.700;2023-06-26T10:31:01;27.20;1.00
21849;DHT22;11089;49.852;19.700;2023-06-26T10:34:04;27.30;1.00
21849;DHT22;11089;49.852;19.700;2023-06-26T10:37:06;27.50;1.00
21849;DHT22;11089;49.852;19.700;2023-06-26T10:40:07;27.70;1.00
21849;DHT22;11089;49.852;19.700;2023-06-26T10:43:10;27.80;1.00
21849;DHT22;11089;49.852;19.700;2023-06-26T10:46:15;27.70;1.00
21849;DHT22;11089;49.852;19.700;2023-06-26T10:49:17;27.90;1.00
21849;DHT22;11089;49.852;19.700;2023-06-26T10:52:18;28.00;1.00
21849;DHT22;11089;49.852;19.700;2023-06-26T10:55:27;28.30;1.00
21849;DHT22;11089;49.852;19.700;2023-06-26T10:58:40;28.50;1.00
21849;DHT22;11089;49.852;19.700;2023-06-26T11:01:47;28.70;1.00
21849;DHT22;11089;49.852;19.700;2023-06-26T11:05:00;28.80;1.00
21849;DHT22;11089;49.852;19.700;2023-06-26T11:08:10;28.90;1.00
21849;DHT22;11089;49.852;19.700;2023-06-26T11:11:13;29.00;1.00
21849;DHT22;11089;49.852;19.700;2023-06-26T11:14:15;29.00;99.90
21849;DHT22;11089;49.852;19.700;2023-06-26T11:17:18;29.10;99.90
21849;DHT22;11089;49.852;19.700;2023-06-26T11:20:19;29.10;99.90
21849;DHT22;11089;49.852;19.700;2023-06-26T11:23:23;29.00;99.90
21849;DHT22;11089;49.852;19.700;2023-06-26T11:26:25;28.90;99.90
21849;DHT22;11089;49.852;19.700;2023-06-26T11:29:26;29.10;99.90
21849;DHT22;11089;49.852;19.700;2023-06-26T11:32:27;29.20;99.90
21849;DHT22;11089;49.852;19.700;2023-06-26T11:35:29;29.40;99.90
21849;DHT22;11089;49.852;19.700;2023-06-26T11:38:37;29.50;99.90
21849;DHT22;11089;49.852;19.700;2023-06-26T11:41:39;29.50;99.90
21849;DHT22;11089;49.852;19.700;2023-06-26T11:44:42;29.00;99.90
21849;DHT22;11089;49.852;19.700;2023-06-26T11:47:46;29.20;99.90
21849;DHT22;11089;49.852;19.700;2023-06-26T11:50:50;29.20;99.90
21849;DHT22;11089;49.852;19.700;2023-06-26T11:53:52;29.10;99.90
21849;DHT22;11089;49.852;19.700;2023-06-26T11:56:58;29.10;99.90
21849;DHT22;11089;49.852;19.700;2023-06-26T12:00:10;29.20;99.90
21849;DHT22;11089;49.852;19.700;2023-06-26T12:03:12;29.10;99.90
21849;DHT22;11089;49.852;19.700;2023-06-26T12:06:13;29.00;99.90
21849;DHT22;11089;49.852;19.700;2023-06-26T12:09:15;28.90;99.90
21849;DHT22;11089;49.852;19.700;2023-06-26T12:12:18;29.00;99.90
21849;DHT22;11089;49.852;19.700;2023-06-26T12:15:19;29.30;99.90
21849;DHT22;11089;49.852;19.700;2023-06-26T12:18:20;29.50;99.90
21849;DHT22;11089;49.852;19.700;2023-06-26T12:24:39;29.10;99.90
21849;DHT22;11089;49.852;19.700;2023-06-26T12:27:40;28.80;99.90
21849;DHT22;11089;49.852;19.700;2023-06-26T12:30:45;29.00;99.90
21849;DHT22;11089;49.852;19.700;2023-06-26T12:33:47;28.90;99.90
21849;DHT22;11089;49.852;19.700;2023-06-26T12:36:49;28.90;99.90
21849;DHT22;11089;49.852;19.700;2023-06-26T12:39:55;29.10;99.90
21849;DHT22;11089;49.852;19.700;2023-06-26T12:42:57;28.70;99.90
21849;DHT22;11089;49.852;19.700;2023-06-26T12:45:58;29.10;99.90
21849;DHT22;11089;49.852;19.700;2023-06-26T12:48:59;29.30;99.90
21849;DHT22;11089;49.852;19.700;2023-06-26T12:52:03;29.60;99.90
21849;DHT22;11089;49.852;19.700;2023-06-26T12:55:05;29.20;99.90
21849;DHT22;11089;49.852;19.700;2023-06-26T12:58:06;28.80;99.90
21849;DHT22;11089;49.852;19.700;2023-06-26T13:01:08;28.80;99.90
21849;DHT22;11089;49.852;19.700;2023-06-26T13:04:15;28.50;99.90
21849;DHT22;11089;49.852;19.700;2023-06-26T13:07:16;28.50;99.90
21849;DHT22;11089;49.852;19.700;2023-06-26T13:10:17;28.30;99.90
21849;DHT22;11089;49.852;19.700;2023-06-26T13:13:18;27.80;99.90
21849;DHT22;11089;49.852;19.700;2023-06-26T13:16:19;27.70;99.90
21849;DHT22;11089;49.852;19.700;2023-06-26T13:19:20;27.50;99.90
21849;DHT22;11089;49.852;19.700;2023-06-26T13:22:21;27.10;99.90
21849;DHT22;11089;49.852;19.700;2023-06-26T13:25:22;27.10;99.90
21849;DHT22;11089;49.852;19.700;2023-06-26T13:28:23;27.00;99.90
21849;DHT22;11089;49.852;19.700;2023-06-26T13:31:24;26.90;99.90
21849;DHT22;11089;49.852;19.700;2023-06-26T13:34:27;27.00;99.90
21849;DHT22;11089;49.852;19.700;2023-06-26T13:37:28;27.00;99.90
21849;DHT22;11089;49.852;19.700;2023-06-26T13:40:29;27.00;99.90
21849;DHT22;11089;49.852;19.700;2023-06-26T13:43:30;27.30;99.90
21849;DHT22;11089;49.852;19.700;2023-06-26T13:46:31;27.30;99.90
21849;DHT22;11089;49.852;19.700;2023-06-26T13:49:31;27.20;99.90
21849;DHT22;11089;49.852;19.700;2023-06-26T13:52:32;27.30;99.90
21849;DHT22;11089;49.852;19.700;2023-06-26T13:55:34;27.40;99.90
21849;DHT22;11089;49.852;19.700;2023-06-26T13:58:36;27.70;99.90
21849;DHT22;11089;49.852;19.700;2023-06-26T14:01:37;27.70;99.90
21849;DHT22;11089;49.852;19.700;2023-06-26T14:04:39;27.50;99.90
21849;DHT22;11089;49.852;19.700;2023-06-26T14:07:40;27.30;99.90
21849;DHT22;11089;49.852;19.700;2023-06-26T14:10:44;27.40;99.90
21849;DHT22;11089;49.852;19.700;2023-06-26T14:13:45;27.40;99.90
21849;DHT22;11089;49.852;19.700;2023-06-26T14:16:46;27.40;99.90
21849;DHT22;11089;49.852;19.700;2023-06-26T14:19:50;27.50;99.90
21849;DHT22;11089;49.852;19.700;2023-06-26T14:22:50;27.50;99.90
21849;DHT22;11089;49.852;19.700;2023-06-26T14:25:51;27.30;99.90
21849;DHT22;11089;49.852;19.700;2023-06-26T14:28:52;27.20;99.90
21849;DHT22;11089;49.852;19.700;2023-06-26T14:31:53;27.10;99.90
21849;DHT22;11089;49.852;19.700;2023-06-26T14:34:55;27.10;99.90
21849;DHT22;11089;49.852;19.700;2023-06-26T14:37:56;26.90;99.90
21849;DHT22;11089;49.852;19.700;2023-06-26T14:40:57;26.80;99.90
21849;DHT22;11089;49.852;19.700;2023-06-26T14:43:58;26.80;99.90
21849;DHT22;11089;49.852;19.700;2023-06-26T14:46:59;26.90;99.90
21849;DHT22;11089;49.852;19.700;2023-06-26T14:50:00;26.90;99.90
21849;DHT22;11089;49.852;19.700;2023-06-26T14:53:01;27.00;99.90
21849;DHT22;11089;49.852;19.700;2023-06-26T14:56:03;27.00;99.90
21849;DHT22;11089;49.852;19.700;2023-06-26T14:59:06;27.00;99.90
21849;DHT22;11089;49.852;19.700;2023-06-26T15:02:08;26.80;99.90
21849;DHT22;11089;49.852;19.700;2023-06-26T15:05:09;26.70;99.90
21849;DHT22;11089;49.852;19.700;2023-06-26T15:08:10;26.70;99.90
21849;DHT22;11089;49.852;19.700;2023-06-26T15:11:12;26.60;99.90
21849;DHT22;11089;49.852;19.700;2023-06-26T15:14:13;26.60;99.90
21849;DHT22;11089;49.852;19.700;2023-06-26T15:17:14;26.50;99.90
21849;DHT22;11089;49.852;19.700;2023-06-26T15:20:15;26.50;99.90
21849;DHT22;11089;49.852;19.700;2023-06-26T15:23:15;26.30;99.90
21849;DHT22;11089;49.852;19.700;2023-06-26T15:26:17;26.20;99.90
21849;DHT22;11089;49.852;19.700;2023-06-26T15:29:18;26.10;99.90
21849;DHT22;11089;49.852;19.700;2023-06-26T15:32:19;26.00;99.90
21849;DHT22;11089;49.852;19.700;2023-06-26T15:35:20;26.10;99.90
21849;DHT22;11089;49.852;19.700;2023-06-26T15:38:21;26.20;99.90
21849;DHT22;11089;49.852;19.700;2023-06-26T15:41:22;26.00;99.90
21849;DHT22;11089;49.852;19.700;2023-06-26T15:44:23;26.10;99.90
21849;DHT22;11089;49.852;19.700;2023-06-26T15:47:24;25.80;99.90
21849;DHT22;11089;49.852;19.700;2023-06-26T15:50:25;25.70;99.90
21849;DHT22;11089;49.852;19.700;2023-06-26T15:53:37;25.60;99.90
21849;DHT22;11089;49.852;19.700;2023-06-26T15:56:39;25.40;99.90
21849;DHT22;11089;49.852;19.700;2023-06-26T15:59:40;25.40;99.90
21849;DHT22;11089;49.852;19.700;2023-06-26T16:02:41;25.50;99.90
21849;DHT22;11089;49.852;19.700;2023-06-26T16:05:42;25.50;99.90
21849;DHT22;11089;49.852;19.700;2023-06-26T16:08:43;25.40;99.90
21849;DHT22;11089;49.852;19.700;2023-06-26T16:11:46;25.40;99.90
21849;DHT22;11089;49.852;19.700;2023-06-26T16:14:47;25.30;99.90
21849;DHT22;11089;49.852;19.700;2023-06-26T16:17:48;25.30;99.90
21849;DHT22;11089;49.852;19.700;2023-06-26T16:20:49;25.20;99.90
21849;DHT22;11089;49.852;19.700;2023-06-26T16:23:50;25.30;99.90
21849;DHT22;11089;49.852;19.700;2023-06-26T16:26:51;25.20;99.90
21849;DHT22;11089;49.852;19.700;2023-06-26T16:29:52;25.10;99.90
21849;DHT22;11089;49.852;19.700;2023-06-26T16:32:53;25.10;99.90
21849;DHT22;11089;49.852;19.700;2023-06-26T16:35:55;25.10;99.90
21849;DHT22;11089;49.852;19.700;2023-06-26T16:38:56;25.00;99.90
21849;DHT22;11089;49.852;19.700;2023-06-26T16:41:57;24.90;99.90
21849;DHT22;11089;49.852;19.700;2023-06-26T16:44:58;24.80;99.90
21849;DHT22;11089;49.852;19.700;2023-06-26T16:47:59;24.80;99.90
21849;DHT22;11089;49.852;19.700;2023-06-26T16:51:00;24.80;99.90
21849;DHT22;11089;49.852;19.700;2023-06-26T16:54:01;24.80;99.90
21849;DHT22;11089;49.852;19.700;2023-06-26T16:57:02;24.70;99.90
21849;DHT22;11089;49.852;19.700;2023-06-26T17:00:04;24.60;99.90
21849;DHT22;11089;49.852;19.700;2023-06-26T17:03:06;24.60;99.90
21849;DHT22;11089;49.852;19.700;2023-06-26T17:06:07;24.50;99.90
21849;DHT22;11089;49.852;19.700;2023-06-26T17:09:10;24.50;99.90
21849;DHT22;11089;49.852;19.700;2023-06-26T17:12:10;24.50;99.90
21849;DHT22;11089;49.852;19.700;2023-06-26T17:15:11;24.40;99.90
21849;DHT22;11089;49.852;19.700;2023-06-26T17:18:12;24.30;99.90
21849;DHT22;11089;49.852;19.700;2023-06-26T17:21:13;24.40;99.90
21849;DHT22;11089;49.852;19.700;2023-06-26T17:24:14;24.30;99.90
21849;DHT22;11089;49.852;19.700;2023-06-26T17:27:15;24.20;99.90
21849;DHT22;11089;49.852;19.700;2023-06-26T17:30:21;24.10;99.90
21849;DHT22;11089;49.852;19.700;2023-06-26T17:33:23;24.10;99.90
21849;DHT22;11089;49.852;19.700;2023-06-26T17:36:24;24.10;99.90
21849;DHT22;11089;49.852;19.700;2023-06-26T17:39:25;24.00;99.90
21849;DHT22;11089;49.852;19.700;2023-06-26T17:42:27;23.80;99.90
21849;DHT22;11089;49.852;19.700;2023-06-26T17:45:27;23.80;99.90
21849;DHT22;11089;49.852;19.700;2023-06-26T17:48:30;23.80;99.90
21849;DHT22;11089;49.852;19.700;2023-06-26T17:51:31;23.70;99.90
21849;DHT22;11089;49.852;19.700;2023-06-26T17:54:32;23.70;99.90
21849;DHT22;11089;49.852;19.700;2023-06-26T17:57:33;23.70;1.00
21849;DHT22;11089;49.852;19.700;2023-06-26T18:00:34;23.60;1.00
21849;DHT22;11089;49.852;19.700;2023-06-26T18:03:35;23.40;1.00
21849;DHT22;11089;49.852;19.700;2023-06-26T18:06:36;23.40;1.00
21849;DHT22;11089;49.852;19.700;2023-06-26T18:09:37;23.40;1.00
21849;DHT22;11089;49.852;19.700;2023-06-26T18:12:38;23.30;1.00
21849;DHT22;11089;49.852;19.700;2023-06-26T18:15:39;23.30;1.00
21849;DHT22;11089;49.852;19.700;2023-06-26T18:18:40;23.20;1.00
21849;DHT22;11089;49.852;19.700;2023-06-26T18:21:42;23.10;1.00
21849;DHT22;11089;49.852;19.700;2023-06-26T18:24:43;23.00;1.00
21849;DHT22;11089;49.852;19.700;2023-06-26T18:27:43;22.90;1.00
21849;DHT22;11089;49.852;19.700;2023-06-26T18:30:44;22.80;1.00
21849;DHT22;11089;49.852;19.700;2023-06-26T18:33:45;22.80;1.00
21849;DHT22;11089;49.852;19.700;2023-06-26T18:36:46;22.70;1.00
21849;DHT22;11089;49.852;19.700;2023-06-26T18:39:47;22.60;1.00
21849;DHT22;11089;49.852;19.700;2023-06-26T18:42:48;22.50;1.00
21849;DHT22;11089;49.852;19.700;2023-06-26T18:45:51;22.40;1.00
21849;DHT22;11089;49.852;19.700;2023-06-26T18:49:00;22.30;1.00
21849;DHT22;11089;49.852;19.700;2023-06-26T18:52:01;22.20;1.00
21849;DHT22;11089;49.852;19.700;2023-06-26T18:55:02;22.10;1.00
21849;DHT22;11089;49.852;19.700;2023-06-26T18:58:03;22.00;1.00
21849;DHT22;11089;49.852;19.700;2023-06-26T19:01:04;21.80;1.00
21849;DHT22;11089;49.852;19.700;2023-06-26T19:04:05;21.80;1.00
21849;DHT22;11089;49.852;19.700;2023-06-26T19:07:06;21.80;1.00
21849;DHT22;11089;49.852;19.700;2023-06-26T19:10:08;21.70;1.00
21849;DHT22;11089;49.852;19.700;2023-06-26T19:13:09;21.60;1.00